sensor_id;sensor_type;location;lat;lon;timestamp;pressure;altitude;pressure_sealevel;temperature;humidity
2675;BME280;1347;42.122;24.746;2022-09-23T00:02:13;99709.31;;;13.75;63.00
2675;BME280;1347;42.122;24.746;2022-09-23T00:04:40;99705.75;;;13.67;63.05
2675;BME280;1347;42.122;24.746;2022-09-23T00:07:07;99712.03;;;13.68;62.73
2675;BME280;1347;42.122;24.746;2022-09-23T00:09:34;99704.59;;;13.72;62.58
2675;BME280;1347;42.122;24.746;2022-09-23T00:12:01;99706.16;;;13.69;62.84
2675;BME280;1347;42.122;24.746;2022-09-23T00:14:28;99703.00;;;13.71;63.38
2675;BME280;1347;42.122;24.746;2022-09-23T00:16:56;99703.84;;;13.78;62.86
2675;BME280;1347;42.122;24.746;2022-09-23T00:19:23;99693.59;;;13.79;62.70
2675;BME280;1347;42.122;24.746;2022-09-23T00:21:50;99694.38;;;13.76;62.42
2675;BME280;1347;42.122;24.746;2022-09-23T00:24:17;99696.75;;;13.74;62.21
2675;BME280;1347;42.122;24.746;2022-09-23T00:26:44;99694.38;;;13.72;62.31
2675;BME280;1347;42.122;24.746;2022-09-23T00:29:11;99697.47;;;13.67;62.80
2675;BME280;1347;42.122;24.746;2022-09-23T00:31:38;99693.97;;;13.70;62.16
2675;BME280;1347;42.122;24.746;2022-09-23T00:34:06;99695.09;;;13.66;62.41
2675;BME280;1347;42.122;24.746;2022-09-23T00:36:36;99699.03;;;13.64;62.67
2675;BME280;1347;42.122;24.746;2022-09-23T00:39:03;99689.97;;;13.64;62.47
2675;BME280;1347;42.122;24.746;2022-09-23T00:41:31;99690.75;;;13.61;62.18
2675;BME280;1347;42.122;24.746;2022-09-23T00:43:59;99697.03;;;13.58;62.43
2675;BME280;1347;42.122;24.746;2022-09-23T00:46:29;99690.34;;;13.59;62.13
2675;BME280;1347;42.122;24.746;2022-09-23T00:49:02;99688.81;;;13.61;62.87
2675;BME280;1347;42.122;24.746;2022-09-23T00:51:35;99689.22;;;13.63;62.24
2675;BME280;1347;42.122;24.746;2022-09-23T00:54:04;99688.00;;;13.64;62.64
2675;BME280;1347;42.122;24.746;2022-09-23T00:56:32;99696.66;;;13.59;62.65
2675;BME280;1347;42.122;24.746;2022-09-23T00:59:00;99689.19;;;13.60;62.32
2675;BME280;1347;42.122;24.746;2022-09-23T01:01:28;99688.81;;;13.65;62.53
2675;BME280;1347;42.122;24.746;2022-09-23T01:03:55;99690.81;;;13.72;62.12
2675;BME280;1347;42.122;24.746;2022-09-23T01:06:23;99691.97;;;13.63;61.75
2675;BME280;1347;42.122;24.746;2022-09-23T01:08:52;99696.31;;;13.68;61.45
2675;BME280;1347;42.122;24.746;2022-09-23T01:11:29;99688.00;;;13.64;61.43
2675;BME280;1347;42.122;24.746;2022-09-23T01:14:08;99687.63;;;13.62;61.60
2675;BME280;1347;42.122;24.746;2022-09-23T01:16:40;99687.22;;;13.64;61.75
2675;BME280;1347;42.122;24.746;2022-09-23T01:19:23;99689.59;;;13.62;61.91
2675;BME280;1347;42.122;24.746;2022-09-23T01:21:59;99688.78;;;13.58;62.31
2675;BME280;1347;42.122;24.746;2022-09-23T01:24:47;99689.50;;;13.48;62.77
2675;BME280;1347;42.122;24.746;2022-09-23T01:27:46;99694.19;;;13.44;62.58
2675;BME280;1347;42.122;24.746;2022-09-23T01:30:41;99685.16;;;13.43;63.10
2675;BME280;1347;42.122;24.746;2022-09-23T01:33:12;99694.97;;;13.44;62.73
2675;BME280;1347;42.122;24.746;2022-09-23T01:35:48;99685.09;;;13.36;62.91
2675;BME280;1347;42.122;24.746;2022-09-23T01:38:27;99692.16;;;13.30;63.02
2675;BME280;1347;42.122;24.746;2022-09-23T01:41:01;99694.50;;;13.28;63.79
2675;BME280;1347;42.122;24.746;2022-09-23T01:43:36;99691.75;;;13.28;63.63
2675;BME280;1347;42.122;24.746;2022-09-23T01:46:11;99685.84;;;13.30;64.11
2675;BME280;1347;42.122;24.746;2022-09-23T01:48:45;99687.72;;;13.15;64.16
2675;BME280;1347;42.122;24.746;2022-09-23T01:51:19;99691.63;;;13.14;64.85
2675;BME280;1347;42.122;24.746;2022-09-23T01:53:54;99683.00;;;13.15;64.76
2675;BME280;1347;42.122;24.746;2022-09-23T01:56:27;99679.41;;;13.11;65.17
2675;BME280;1347;42.122;24.746;2022-09-23T01:58:59;99672.25;;;13.00;65.04
2675;BME280;1347;42.122;24.746;2022-09-23T02:01:34;99681.72;;;13.02;65.08
2675;BME280;1347;42.122;24.746;2022-09-23T02:04:07;99680.47;;;12.96;64.53
2675;BME280;1347;42.122;24.746;2022-09-23T02:06:40;99669.91;;;13.02;64.45
2675;BME280;1347;42.122;24.746;2022-09-23T02:09:11;99673.03;;;13.04;64.32
2675;BME280;1347;42.122;24.746;2022-09-23T02:11:42;99678.50;;;12.97;64.31
2675;BME280;1347;42.122;24.746;2022-09-23T02:14:18;99680.06;;;12.94;64.28
2675;BME280;1347;42.122;24.746;2022-09-23T02:16:51;99685.91;;;12.89;64.66
2675;BME280;1347;42.122;24.746;2022-09-23T02:19:22;99679.25;;;12.90;64.33
2675;BME280;1347;42.122;24.746;2022-09-23T02:21:56;99686.63;;;12.82;64.50
2675;BME280;1347;42.122;24.746;2022-09-23T02:24:27;99687.84;;;12.85;64.44
2675;BME280;1347;42.122;24.746;2022-09-23T02:27:02;99687.44;;;12.83;64.73
2675;BME280;1347;42.122;24.746;2022-09-23T02:29:38;99685.84;;;12.78;64.34
2675;BME280;1347;42.122;24.746;2022-09-23T02:32:12;99695.25;;;12.77;64.73
2675;BME280;1347;42.122;24.746;2022-09-23T02:34:44;99694.47;;;12.77;65.00
2675;BME280;1347;42.122;24.746;2022-09-23T02:37:25;99694.41;;;12.73;65.10
2675;BME280;1347;42.122;24.746;2022-09-23T02:40:00;99694.31;;;12.59;65.37
2675;BME280;1347;42.122;24.746;2022-09-23T02:42:32;99691.97;;;12.65;65.07
2675;BME280;1347;42.122;24.746;2022-09-23T02:45:03;99688.53;;;12.71;65.22
2675;BME280;1347;42.122;24.746;2022-09-23T02:47:34;99686.16;;;12.70;64.84
2675;BME280;1347;42.122;24.746;2022-09-23T02:50:04;99693.94;;;12.64;65.39
2675;BME280;1347;42.122;24.746;2022-09-23T02:52:32;99688.81;;;12.63;65.69
2675;BME280;1347;42.122;24.746;2022-09-23T02:55:01;99697.47;;;12.61;65.68
2675;BME280;1347;42.122;24.746;2022-09-23T02:57:28;99696.59;;;12.53;65.73
2675;BME280;1347;42.122;24.746;2022-09-23T02:59:55;99697.31;;;12.47;65.88
2675;BME280;1347;42.122;24.746;2022-09-23T03:02:45;99701.59;;;12.44;66.42
2675;BME280;1347;42.122;24.746;2022-09-23T03:05:24;99712.59;;;12.41;66.57
2675;BME280;1347;42.122;24.746;2022-09-23T03:08:06;99707.75;;;12.31;67.24
2675;BME280;1347;42.122;24.746;2022-09-23T03:10:43;99717.19;;;12.33;67.09
2675;BME280;1347;42.122;24.746;2022-09-23T03:13:25;99715.75;;;12.09;68.25
2675;BME280;1347;42.122;24.746;2022-09-23T03:15:59;99716.25;;;12.19;68.01
2675;BME280;1347;42.122;24.746;2022-09-23T03:18:33;99715.41;;;12.11;68.32
2675;BME280;1347;42.122;24.746;2022-09-23T03:21:05;99718.91;;;12.11;68.49
2675;BME280;1347;42.122;24.746;2022-09-23T03:23:35;99719.19;;;12.03;68.99
2675;BME280;1347;42.122;24.746;2022-09-23T03:26:06;99725.84;;;12.02;69.11
2675;BME280;1347;42.122;24.746;2022-09-23T03:28:35;99727.03;;;12.01;69.17
2675;BME280;1347;42.122;24.746;2022-09-23T03:31:03;99721.88;;;11.96;69.52
2675;BME280;1347;42.122;24.746;2022-09-23T03:33:33;99718.47;;;11.76;70.45
2675;BME280;1347;42.122;24.746;2022-09-23T03:36:04;99722.16;;;11.61;71.77
2675;BME280;1347;42.122;24.746;2022-09-23T03:38:50;99714.41;;;11.66;71.89
2675;BME280;1347;42.122;24.746;2022-09-23T03:41:23;99722.41;;;11.52;72.47
2675;BME280;1347;42.122;24.746;2022-09-23T03:43:54;99726.09;;;11.60;72.72
2675;BME280;1347;42.122;24.746;2022-09-23T03:46:24;99739.09;;;11.66;72.65
2675;BME280;1347;42.122;24.746;2022-09-23T03:48:55;99741.34;;;11.57;72.83
2675;BME280;1347;42.122;24.746;2022-09-23T03:51:25;99741.38;;;11.61;72.88
2675;BME280;1347;42.122;24.746;2022-09-23T03:53:52;99744.13;;;11.61;73.17
2675;BME280;1347;42.122;24.746;2022-09-23T03:56:19;99747.19;;;11.56;73.20
2675;BME280;1347;42.122;24.746;2022-09-23T03:58:45;99743.97;;;11.50;73.30
2675;BME280;1347;42.122;24.746;2022-09-23T04:01:13;99744.72;;;11.47;73.73
2675;BME280;1347;42.122;24.746;2022-09-23T04:03:40;99740.38;;;11.46;73.98
2675;BME280;1347;42.122;24.746;2022-09-23T04:06:09;99737.63;;;11.46;74.28
2675;BME280;1347;42.122;24.746;2022-09-23T04:08:36;99747.50;;;11.51;73.89
2675;BME280;1347;42.122;24.746;2022-09-23T04:11:03;99720.03;;;11.51;73.52
2675;BME280;1347;42.122;24.746;2022-09-23T04:13:30;99747.25;;;11.59;73.77
2675;BME280;1347;42.122;24.746;2022-09-23T04:15:57;99743.59;;;11.52;73.88
2675;BME280;1347;42.122;24.746;2022-09-23T04:18:24;99748.44;;;11.62;74.06
2675;BME280;1347;42.122;24.746;2022-09-23T04:20:56;99750.56;;;11.46;74.56
2675;BME280;1347;42.122;24.746;2022-09-23T04:23:24;99750.72;;;11.56;74.50
2675;BME280;1347;42.122;24.746;2022-09-23T04:25:52;99754.34;;;11.64;73.71
2675;BME280;1347;42.122;24.746;2022-09-23T04:28:19;99749.28;;;11.66;73.93
2675;BME280;1347;42.122;24.746;2022-09-23T04:30:47;99749.28;;;11.66;73.98
2675;BME280;1347;42.122;24.746;2022-09-23T04:33:15;99748.06;;;11.63;73.36
2675;BME280;1347;42.122;24.746;2022-09-23T04:35:42;99748.97;;;11.71;73.59
2675;BME280;1347;42.122;24.746;2022-09-23T04:38:10;99750.31;;;11.81;73.19
2675;BME280;1347;42.122;24.746;2022-09-23T04:40:39;99760.19;;;11.85;73.19
2675;BME280;1347;42.122;24.746;2022-09-23T04:43:06;99760.25;;;11.89;73.15
2675;BME280;1347;42.122;24.746;2022-09-23T04:45:33;99755.94;;;11.91;72.54
2675;BME280;1347;42.122;24.746;2022-09-23T04:48:00;99765.75;;;11.92;72.42
2675;BME280;1347;42.122;24.746;2022-09-23T04:50:27;99760.69;;;11.94;71.98
2675;BME280;1347;42.122;24.746;2022-09-23T04:52:54;99763.44;;;11.94;71.76
2675;BME280;1347;42.122;24.746;2022-09-23T04:55:21;99758.44;;;12.00;71.66
2675;BME280;1347;42.122;24.746;2022-09-23T04:57:49;99766.66;;;12.00;71.53
2675;BME280;1347;42.122;24.746;2022-09-23T05:00:16;99763.28;;;12.10;70.81
2675;BME280;1347;42.122;24.746;2022-09-23T05:02:45;99766.69;;;12.03;71.61
2675;BME280;1347;42.122;24.746;2022-09-23T05:05:13;99769.88;;;12.05;71.09
2675;BME280;1347;42.122;24.746;2022-09-23T05:07:45;99778.31;;;12.20;70.47
2675;BME280;1347;42.122;24.746;2022-09-23T05:10:12;99776.94;;;12.06;71.14
2675;BME280;1347;42.122;24.746;2022-09-23T05:12:39;99775.94;;;12.18;70.70
2675;BME280;1347;42.122;24.746;2022-09-23T05:15:08;99774.78;;;12.23;70.41
2675;BME280;1347;42.122;24.746;2022-09-23T05:17:35;99767.38;;;12.27;70.67
2675;BME280;1347;42.122;24.746;2022-09-23T05:20:03;99777.94;;;12.21;70.17
2675;BME280;1347;42.122;24.746;2022-09-23T05:22:30;99774.47;;;12.28;69.92
2675;BME280;1347;42.122;24.746;2022-09-23T05:24:57;99774.47;;;12.28;70.19
2675;BME280;1347;42.122;24.746;2022-09-23T05:27:24;99778.56;;;12.41;69.86
2675;BME280;1347;42.122;24.746;2022-09-23T05:29:51;99776.44;;;12.61;68.83
2675;BME280;1347;42.122;24.746;2022-09-23T05:32:20;99775.53;;;12.90;67.82
2675;BME280;1347;42.122;24.746;2022-09-23T05:34:47;99778.16;;;13.16;66.98
2675;BME280;1347;42.122;24.746;2022-09-23T05:37:14;99772.78;;;13.34;66.34
2675;BME280;1347;42.122;24.746;2022-09-23T05:39:41;99774.44;;;13.42;65.97
2675;BME280;1347;42.122;24.746;2022-09-23T05:42:08;99775.16;;;13.36;66.36
2675;BME280;1347;42.122;24.746;2022-09-23T05:44:36;99774.50;;;13.49;65.26
2675;BME280;1347;42.122;24.746;2022-09-23T05:47:04;99780.94;;;13.71;65.52
2675;BME280;1347;42.122;24.746;2022-09-23T05:49:33;99780.34;;;14.03;63.87
2675;BME280;1347;42.122;24.746;2022-09-23T05:52:01;99784.81;;;14.35;63.71
2675;BME280;1347;42.122;24.746;2022-09-23T05:54:28;99777.06;;;14.62;62.18
2675;BME280;1347;42.122;24.746;2022-09-23T05:56:55;99789.28;;;14.72;61.06
2675;BME280;1347;42.122;24.746;2022-09-23T05:59:21;99785.75;;;14.71;60.54
2675;BME280;1347;42.122;24.746;2022-09-23T06:01:48;99786.19;;;15.02;60.53
2675;BME280;1347;42.122;24.746;2022-09-23T06:04:15;99788.97;;;15.20;59.84
2675;BME280;1347;42.122;24.746;2022-09-23T06:06:43;99785.81;;;15.42;59.50
2675;BME280;1347;42.122;24.746;2022-09-23T06:09:12;99788.97;;;15.44;58.67
2675;BME280;1347;42.122;24.746;2022-09-23T06:11:40;99780.31;;;15.67;58.62
2675;BME280;1347;42.122;24.746;2022-09-23T06:14:10;99787.78;;;15.81;58.45
2675;BME280;1347;42.122;24.746;2022-09-23T06:16:38;99790.13;;;15.97;57.28
2675;BME280;1347;42.122;24.746;2022-09-23T06:19:05;99788.72;;;16.51;56.85
2675;BME280;1347;42.122;24.746;2022-09-23T06:21:33;99790.72;;;16.43;56.45
2675;BME280;1347;42.122;24.746;2022-09-23T06:24:02;99786.28;;;17.29;53.82
2675;BME280;1347;42.122;24.746;2022-09-23T06:26:29;99785.28;;;18.63;51.07
2675;BME280;1347;42.122;24.746;2022-09-23T06:28:58;99794.25;;;20.77;45.94
2675;BME280;1347;42.122;24.746;2022-09-23T06:31:26;99800.66;;;23.28;42.44
2675;BME280;1347;42.122;24.746;2022-09-23T06:33:53;99805.44;;;23.40;40.88
2675;BME280;1347;42.122;24.746;2022-09-23T06:36:20;99803.47;;;24.75;38.36
2675;BME280;1347;42.122;24.746;2022-09-23T06:38:48;99791.78;;;25.57;36.14
2675;BME280;1347;42.122;24.746;2022-09-23T06:41:16;99794.22;;;26.31;35.51
2675;BME280;1347;42.122;24.746;2022-09-23T06:43:45;99804.13;;;28.83;33.18
2675;BME280;1347;42.122;24.746;2022-09-23T06:46:14;99794.38;;;28.26;32.93
2675;BME280;1347;42.122;24.746;2022-09-23T06:48:41;99804.00;;;28.34;31.38
2675;BME280;1347;42.122;24.746;2022-09-23T06:51:10;99798.63;;;29.39;31.24
2675;BME280;1347;42.122;24.746;2022-09-23T06:53:44;99804.94;;;30.35;29.80
2675;BME280;1347;42.122;24.746;2022-09-23T06:56:11;99803.53;;;29.99;30.15
2675;BME280;1347;42.122;24.746;2022-09-23T06:58:39;99814.75;;;31.17;28.31
2675;BME280;1347;42.122;24.746;2022-09-23T07:01:10;99813.28;;;29.98;29.84
2675;BME280;1347;42.122;24.746;2022-09-23T07:03:38;99819.53;;;30.02;29.31
2675;BME280;1347;42.122;24.746;2022-09-23T07:06:06;99814.66;;;30.03;29.31
2675;BME280;1347;42.122;24.746;2022-09-23T07:08:34;99813.25;;;31.22;28.79
2675;BME280;1347;42.122;24.746;2022-09-23T07:11:04;99821.41;;;31.51;28.21
2675;BME280;1347;42.122;24.746;2022-09-23T07:13:31;99823.09;;;33.62;26.48
2675;BME280;1347;42.122;24.746;2022-09-23T07:16:00;99823.88;;;31.75;26.53
2675;BME280;1347;42.122;24.746;2022-09-23T07:18:29;99823.31;;;29.44;28.87
2675;BME280;1347;42.122;24.746;2022-09-23T07:21:04;99813.44;;;32.09;26.63
2675;BME280;1347;42.122;24.746;2022-09-23T07:23:31;99820.06;;;32.99;25.97
2675;BME280;1347;42.122;24.746;2022-09-23T07:25:59;99810.59;;;32.09;26.34
2675;BME280;1347;42.122;24.746;2022-09-23T07:28:26;99811.75;;;32.50;26.41
2675;BME280;1347;42.122;24.746;2022-09-23T07:30:53;99815.06;;;29.25;28.76
2675;BME280;1347;42.122;24.746;2022-09-23T07:33:22;99800.06;;;31.61;26.84
2675;BME280;1347;42.122;24.746;2022-09-23T07:35:48;99808.88;;;30.63;27.57
2675;BME280;1347;42.122;24.746;2022-09-23T07:38:15;99817.91;;;33.77;25.67
2675;BME280;1347;42.122;24.746;2022-09-23T07:40:43;99819.44;;;33.73;25.49
2675;BME280;1347;42.122;24.746;2022-09-23T07:43:09;99810.53;;;33.07;25.67
2675;BME280;1347;42.122;24.746;2022-09-23T07:45:37;99818.00;;;32.99;25.77
2675;BME280;1347;42.122;24.746;2022-09-23T07:48:08;99808.41;;;32.52;25.97
2675;BME280;1347;42.122;24.746;2022-09-23T07:50:39;99809.13;;;32.19;26.02
2675;BME280;1347;42.122;24.746;2022-09-23T07:53:06;99808.00;;;31.94;26.19
2675;BME280;1347;42.122;24.746;2022-09-23T07:55:33;99810.22;;;35.31;23.84
2675;BME280;1347;42.122;24.746;2022-09-23T07:58:00;99817.84;;;35.90;23.36
2675;BME280;1347;42.122;24.746;2022-09-23T08:00:28;99822.97;;;37.63;22.17
2675;BME280;1347;42.122;24.746;2022-09-23T08:02:55;99810.22;;;35.80;23.05
2675;BME280;1347;42.122;24.746;2022-09-23T08:05:22;99824.56;;;37.32;22.41
2675;BME280;1347;42.122;24.746;2022-09-23T08:07:50;99797.19;;;35.05;23.09
2675;BME280;1347;42.122;24.746;2022-09-23T08:10:17;99809.06;;;37.93;21.62
2675;BME280;1347;42.122;24.746;2022-09-23T08:12:46;99815.50;;;38.33;21.92
2675;BME280;1347;42.122;24.746;2022-09-23T08:15:13;99797.78;;;37.03;22.64
2675;BME280;1347;42.122;24.746;2022-09-23T08:17:41;99810.00;;;37.16;22.15
2675;BME280;1347;42.122;24.746;2022-09-23T08:20:09;99797.03;;;35.22;22.70
2675;BME280;1347;42.122;24.746;2022-09-23T08:22:59;99793.44;;;34.56;23.97
2675;BME280;1347;42.122;24.746;2022-09-23T08:25:27;99788.88;;;35.62;22.67
2675;BME280;1347;42.122;24.746;2022-09-23T08:27:54;99786.69;;;35.49;22.69
2675;BME280;1347;42.122;24.746;2022-09-23T08:30:21;99791.00;;;38.11;22.06
2675;BME280;1347;42.122;24.746;2022-09-23T08:32:49;99779.16;;;37.54;21.53
2675;BME280;1347;42.122;24.746;2022-09-23T08:35:17;99770.59;;;36.96;21.49
2675;BME280;1347;42.122;24.746;2022-09-23T08:37:44;99779.59;;;36.36;22.17
2675;BME280;1347;42.122;24.746;2022-09-23T08:40:13;99774.94;;;36.71;21.72
2675;BME280;1347;42.122;24.746;2022-09-23T08:42:42;99784.72;;;38.88;20.58
2675;BME280;1347;42.122;24.746;2022-09-23T08:45:16;99787.16;;;38.43;20.82
2675;BME280;1347;42.122;24.746;2022-09-23T08:47:50;99773.53;;;37.49;21.93
2675;BME280;1347;42.122;24.746;2022-09-23T08:50:19;99781.13;;;37.86;21.09
2675;BME280;1347;42.122;24.746;2022-09-23T08:52:50;99776.41;;;37.62;21.29
2675;BME280;1347;42.122;24.746;2022-09-23T08:55:23;99768.09;;;37.98;21.91
2675;BME280;1347;42.122;24.746;2022-09-23T08:58:07;99769.44;;;38.65;20.57
2675;BME280;1347;42.122;24.746;2022-09-23T09:00:55;99767.38;;;36.55;21.84
2675;BME280;1347;42.122;24.746;2022-09-23T09:03:36;99766.38;;;37.55;21.71
2675;BME280;1347;42.122;24.746;2022-09-23T09:06:09;99771.16;;;35.20;22.58
2675;BME280;1347;42.122;24.746;2022-09-23T09:08:38;99761.91;;;34.84;22.53
2675;BME280;1347;42.122;24.746;2022-09-23T09:11:09;99765.03;;;37.56;21.40
2675;BME280;1347;42.122;24.746;2022-09-23T09:13:44;99756.72;;;34.88;22.71
2675;BME280;1347;42.122;24.746;2022-09-23T09:16:23;99757.00;;;36.20;21.62
2675;BME280;1347;42.122;24.746;2022-09-23T09:18:54;99759.78;;;36.76;21.67
2675;BME280;1347;42.122;24.746;2022-09-23T09:21:29;99760.25;;;35.92;21.44
2675;BME280;1347;42.122;24.746;2022-09-23T09:24:11;99759.03;;;36.89;21.27
2675;BME280;1347;42.122;24.746;2022-09-23T09:26:49;99745.56;;;38.49;20.02
2675;BME280;1347;42.122;24.746;2022-09-23T09:29:19;99763.22;;;39.44;19.71
2675;BME280;1347;42.122;24.746;2022-09-23T09:31:49;99753.63;;;36.21;20.33
2675;BME280;1347;42.122;24.746;2022-09-23T09:34:24;99752.75;;;36.77;20.44
2675;BME280;1347;42.122;24.746;2022-09-23T09:37:00;99755.91;;;33.65;23.13
2675;BME280;1347;42.122;24.746;2022-09-23T09:39:29;99743.22;;;34.59;22.80
2675;BME280;1347;42.122;24.746;2022-09-23T09:41:58;99741.72;;;35.80;22.47
2675;BME280;1347;42.122;24.746;2022-09-23T09:44:31;99753.19;;;34.77;22.72
2675;BME280;1347;42.122;24.746;2022-09-23T09:47:13;99747.66;;;35.38;22.71
2675;BME280;1347;42.122;24.746;2022-09-23T09:49:47;99755.28;;;37.52;21.45
2675;BME280;1347;42.122;24.746;2022-09-23T09:52:20;99741.81;;;35.01;22.46
2675;BME280;1347;42.122;24.746;2022-09-23T09:54:48;99756.28;;;33.16;24.17
2675;BME280;1347;42.122;24.746;2022-09-23T09:57:25;99754.22;;;33.22;23.50
2675;BME280;1347;42.122;24.746;2022-09-23T09:59:55;99743.75;;;31.80;24.14
2675;BME280;1347;42.122;24.746;2022-09-23T10:02:26;99735.69;;;32.71;24.18
2675;BME280;1347;42.122;24.746;2022-09-23T10:04:59;99735.78;;;35.10;22.71
2675;BME280;1347;42.122;24.746;2022-09-23T10:07:29;99743.56;;;35.34;21.43
2675;BME280;1347;42.122;24.746;2022-09-23T10:09:56;99742.38;;;34.34;22.67
2675;BME280;1347;42.122;24.746;2022-09-23T10:12:42;99742.41;;;34.28;23.31
2675;BME280;1347;42.122;24.746;2022-09-23T10:15:25;99736.16;;;33.89;23.56
2675;BME280;1347;42.122;24.746;2022-09-23T10:17:53;99724.75;;;31.01;24.83
2675;BME280;1347;42.122;24.746;2022-09-23T10:20:20;99720.44;;;32.63;24.17
2675;BME280;1347;42.122;24.746;2022-09-23T10:22:47;99718.19;;;31.63;24.49
2675;BME280;1347;42.122;24.746;2022-09-23T10:25:18;99709.28;;;30.59;25.32
2675;BME280;1347;42.122;24.746;2022-09-23T10:27:47;99706.38;;;29.56;26.10
2675;BME280;1347;42.122;24.746;2022-09-23T10:30:20;99713.47;;;28.32;26.85
2675;BME280;1347;42.122;24.746;2022-09-23T10:32:48;99696.41;;;27.67;27.48
2675;BME280;1347;42.122;24.746;2022-09-23T10:35:17;99687.97;;;26.54;27.02
2675;BME280;1347;42.122;24.746;2022-09-23T10:37:48;99689.66;;;25.82;28.09
2675;BME280;1347;42.122;24.746;2022-09-23T10:40:19;99686.66;;;25.58;28.55
2675;BME280;1347;42.122;24.746;2022-09-23T10:43:35;99667.78;;;24.33;29.70
2675;BME280;1347;42.122;24.746;2022-09-23T10:46:26;99672.66;;;23.20;30.39
2675;BME280;1347;42.122;24.746;2022-09-23T10:49:33;99678.06;;;23.01;30.69
2675;BME280;1347;42.122;24.746;2022-09-23T10:52:21;99669.44;;;22.32;31.52
2675;BME280;1347;42.122;24.746;2022-09-23T10:57:34;99673.66;;;21.09;32.10
2675;BME280;1347;42.122;24.746;2022-09-23T11:00:20;99672.88;;;20.92;32.43
2675;BME280;1347;42.122;24.746;2022-09-23T11:03:06;99666.97;;;21.06;32.55
2675;BME280;1347;42.122;24.746;2022-09-23T11:05:40;99655.34;;;21.40;31.93
2675;BME280;1347;42.122;24.746;2022-09-23T11:08:27;99654.69;;;21.04;31.54
2675;BME280;1347;42.122;24.746;2022-09-23T11:11:06;99660.69;;;21.02;32.30
2675;BME280;1347;42.122;24.746;2022-09-23T11:13:46;99654.91;;;21.09;33.04
2675;BME280;1347;42.122;24.746;2022-09-23T11:16:24;99648.94;;;20.62;33.57
2675;BME280;1347;42.122;24.746;2022-09-23T11:19:09;99647.19;;;21.01;33.38
2675;BME280;1347;42.122;24.746;2022-09-23T11:21:56;99643.72;;;20.97;32.22
2675;BME280;1347;42.122;24.746;2022-09-23T11:24:44;99638.44;;;21.31;32.69
2675;BME280;1347;42.122;24.746;2022-09-23T11:27:22;99637.03;;;21.39;31.98
2675;BME280;1347;42.122;24.746;2022-09-23T11:30:07;99624.09;;;21.16;31.96
2675;BME280;1347;42.122;24.746;2022-09-23T11:33:11;99622.09;;;21.17;32.17
2675;BME280;1347;42.122;24.746;2022-09-23T11:35:46;99636.09;;;21.29;32.20
2675;BME280;1347;42.122;24.746;2022-09-23T11:38:16;99624.97;;;21.13;32.10
2675;BME280;1347;42.122;24.746;2022-09-23T11:40:52;99619.44;;;21.42;31.41
2675;BME280;1347;42.122;24.746;2022-09-23T11:43:21;99619.06;;;21.40;31.77
2675;BME280;1347;42.122;24.746;2022-09-23T11:45:53;99621.03;;;21.97;31.21
2675;BME280;1347;42.122;24.746;2022-09-23T11:48:29;99613.47;;;22.11;30.77
2675;BME280;1347;42.122;24.746;2022-09-23T11:51:00;99600.91;;;21.90;30.52
2675;BME280;1347;42.122;24.746;2022-09-23T11:53:35;99596.56;;;21.76;30.92
2675;BME280;1347;42.122;24.746;2022-09-23T11:56:07;99604.25;;;21.85;30.73
2675;BME280;1347;42.122;24.746;2022-09-23T11:58:39;99597.03;;;21.58;31.04
2675;BME280;1347;42.122;24.746;2022-09-23T12:01:11;99603.41;;;21.59;30.44
2675;BME280;1347;42.122;24.746;2022-09-23T12:03:46;99609.13;;;21.68;30.02
2675;BME280;1347;42.122;24.746;2022-09-23T12:06:18;99607.59;;;21.80;31.14
2675;BME280;1347;42.122;24.746;2022-09-23T12:08:50;99605.94;;;21.95;30.77
2675;BME280;1347;42.122;24.746;2022-09-23T12:11:26;99607.41;;;21.99;30.41
2675;BME280;1347;42.122;24.746;2022-09-23T12:14:01;99606.53;;;21.61;30.59
2675;BME280;1347;42.122;24.746;2022-09-23T12:17:03;99598.97;;;21.61;30.74
2675;BME280;1347;42.122;24.746;2022-09-23T12:19:51;99601.31;;;21.63;31.23
2675;BME280;1347;42.122;24.746;2022-09-23T12:22:29;99602.09;;;21.63;30.89
2675;BME280;1347;42.122;24.746;2022-09-23T12:25:15;99594.22;;;21.87;31.64
2675;BME280;1347;42.122;24.746;2022-09-23T12:27:49;99606.38;;;21.81;31.52
2675;BME280;1347;42.122;24.746;2022-09-23T12:30:21;99601.16;;;21.54;31.94
2675;BME280;1347;42.122;24.746;2022-09-23T12:32:50;99585.56;;;21.56;31.58
2675;BME280;1347;42.122;24.746;2022-09-23T12:35:24;99592.03;;;21.53;31.22
2675;BME280;1347;42.122;24.746;2022-09-23T12:37:53;99591.31;;;21.49;31.02
2675;BME280;1347;42.122;24.746;2022-09-23T12:40:22;99581.56;;;21.57;30.82
2675;BME280;1347;42.122;24.746;2022-09-23T12:42:52;99592.06;;;21.66;31.62
2675;BME280;1347;42.122;24.746;2022-09-23T12:45:40;99590.66;;;21.87;32.08
2675;BME280;1347;42.122;24.746;2022-09-23T12:51:14;99590.44;;;21.52;30.83
2675;BME280;1347;42.122;24.746;2022-09-23T12:53:51;99587.81;;;21.33;31.45
2675;BME280;1347;42.122;24.746;2022-09-23T12:56:24;99588.22;;;21.47;31.47
2675;BME280;1347;42.122;24.746;2022-09-23T12:58:59;99603.25;;;21.50;31.12
2675;BME280;1347;42.122;24.746;2022-09-23T13:01:27;99599.97;;;21.26;31.62
2675;BME280;1347;42.122;24.746;2022-09-23T13:03:59;99599.56;;;21.40;31.76
2675;BME280;1347;42.122;24.746;2022-09-23T13:06:50;99605.44;;;21.29;31.51
2675;BME280;1347;42.122;24.746;2022-09-23T13:09:21;99602.78;;;21.39;31.44
2675;BME280;1347;42.122;24.746;2022-09-23T13:11:50;99594.72;;;21.28;31.30
2675;BME280;1347;42.122;24.746;2022-09-23T13:14:21;99594.72;;;21.12;31.57
2675;BME280;1347;42.122;24.746;2022-09-23T13:16:49;99599.09;;;21.13;31.64
2675;BME280;1347;42.122;24.746;2022-09-23T13:19:44;99596.97;;;21.33;31.48
2675;BME280;1347;42.122;24.746;2022-09-23T13:22:13;99589.59;;;21.26;31.15
2675;BME280;1347;42.122;24.746;2022-09-23T13:25:16;99591.84;;;21.32;31.76
2675;BME280;1347;42.122;24.746;2022-09-23T13:27:46;99598.19;;;21.32;30.81
2675;BME280;1347;42.122;24.746;2022-09-23T13:30:18;99593.00;;;21.18;30.70
2675;BME280;1347;42.122;24.746;2022-09-23T13:32:49;99588.81;;;21.10;31.17
2675;BME280;1347;42.122;24.746;2022-09-23T13:35:23;99586.53;;;21.21;30.68
2675;BME280;1347;42.122;24.746;2022-09-23T13:37:53;99585.91;;;21.29;31.14
2675;BME280;1347;42.122;24.746;2022-09-23T13:40:22;99584.09;;;21.23;31.00
2675;BME280;1347;42.122;24.746;2022-09-23T13:42:54;99587.31;;;21.21;29.53